createdAt,value
2019-03-28T00:00:08.901Z,1035.8
2019-03-28T00:01:08.911Z,1035.81
2019-03-28T00:02:08.919Z,1035.79
2019-03-28T00:03:09.002Z,1035.77
2019-03-28T00:04:08.651Z,1035.76
2019-03-28T00:05:08.806Z,1035.78
2019-03-28T00:06:08.859Z,1035.83
2019-03-28T00:07:08.687Z,1035.76
2019-03-28T00:08:08.759Z,1035.8
2019-03-28T00:09:08.732Z,1035.77
2019-03-28T00:10:08.760Z,1035.78
2019-03-28T00:11:08.736Z,1035.82
2019-03-28T00:12:08.769Z,1035.81
2019-03-28T00:13:08.780Z,1035.81
2019-03-28T00:14:09.358Z,1035.8
2019-03-28T00:15:08.954Z,1035.82
2019-03-28T00:16:08.830Z,1035.84
2019-03-28T00:17:08.846Z,1035.81
2019-03-28T00:18:08.879Z,1035.82
2019-03-28T00:19:08.853Z,1035.81
2019-03-28T00:20:08.889Z,1035.79
2019-03-28T00:21:08.673Z,1035.8
2019-03-28T00:22:08.769Z,1035.79
2019-03-28T00:23:08.769Z,1035.82
2019-03-28T00:24:08.713Z,1035.8
2019-03-28T00:25:08.837Z,1035.77
2019-03-28T00:26:08.795Z,1035.81
2019-03-28T00:27:08.758Z,1035.84
2019-03-28T00:28:08.890Z,1035.83
2019-03-28T00:29:08.809Z,1035.79
2019-03-28T00:30:08.929Z,1035.79
2019-03-28T00:31:09.782Z,1035.79
2019-03-28T00:32:08.834Z,1035.78
2019-03-28T00:33:08.841Z,1035.74
2019-03-28T00:34:08.865Z,1035.78
2019-03-28T00:35:09.020Z,1035.82
2019-03-28T00:36:09.001Z,1035.81
2019-03-28T00:37:09.347Z,1035.84
2019-03-28T00:38:08.801Z,1035.84
2019-03-28T00:39:08.656Z,1035.8
2019-03-28T00:40:08.651Z,1035.8
2019-03-28T00:41:08.705Z,1035.79
2019-03-28T00:42:08.713Z,1035.74
2019-03-28T00:43:08.772Z,1035.72
2019-03-28T00:44:08.810Z,1035.73
2019-03-28T00:45:08.734Z,1035.72
2019-03-28T00:46:08.730Z,1035.73
2019-03-28T00:47:08.910Z,1035.74
2019-03-28T00:48:08.782Z,1035.71
2019-03-28T00:49:08.840Z,1035.76
2019-03-28T00:50:08.829Z,1035.75
2019-03-28T00:51:08.895Z,1035.71
2019-03-28T00:52:08.834Z,1035.69
2019-03-28T00:53:08.838Z,1035.7
2019-03-28T00:54:08.905Z,1035.67
2019-03-28T00:55:08.664Z,1035.69
2019-03-28T00:56:08.722Z,1035.66
2019-03-28T00:57:08.744Z,1035.64
2019-03-28T00:58:09.362Z,1035.65
2019-03-28T00:59:08.627Z,1035.63
2019-03-28T01:00:08.812Z,1035.64
2019-03-28T01:01:08.826Z,1035.64
2019-03-28T01:02:08.773Z,1035.65
2019-03-28T01:03:08.773Z,1035.62
2019-03-28T01:04:08.802Z,1035.58
2019-03-28T01:05:08.796Z,1035.62
2019-03-28T01:06:08.830Z,1035.59
2019-03-28T01:07:08.930Z,1035.58
2019-03-28T01:08:08.930Z,1035.58
2019-03-28T01:09:08.876Z,1035.56
2019-03-28T01:10:08.878Z,1035.52
2019-03-28T01:11:08.899Z,1035.53
2019-03-28T01:12:08.918Z,1035.54
2019-03-28T01:13:08.681Z,1035.57
2019-03-28T01:14:08.631Z,1035.57
2019-03-28T01:15:08.633Z,1035.59
2019-03-28T01:16:08.670Z,1035.57
2019-03-28T01:17:08.742Z,1035.64
2019-03-28T01:18:08.760Z,1035.66
2019-03-28T01:19:08.866Z,1035.65
2019-03-28T01:20:08.736Z,1035.64
2019-03-28T01:21:08.761Z,1035.66
2019-03-28T01:22:08.937Z,1035.67
2019-03-28T01:23:08.799Z,1035.68
2019-03-28T01:24:08.766Z,1035.66
2019-03-28T01:25:08.857Z,1035.64
2019-03-28T01:26:08.565Z,1035.63
2019-03-28T01:27:09.007Z,1035.63
2019-03-28T01:28:08.880Z,1035.65
2019-03-28T01:29:08.850Z,1035.67
2019-03-28T01:30:08.993Z,1035.62
2019-03-28T01:31:08.665Z,1035.65
2019-03-28T01:32:08.670Z,1035.63
2019-03-28T01:33:08.803Z,1035.66
2019-03-28T01:34:08.709Z,1035.68
2019-03-28T01:35:08.859Z,1035.67
2019-03-28T01:36:08.867Z,1035.67
2019-03-28T01:37:08.800Z,1035.63
2019-03-28T01:38:08.856Z,1035.67
2019-03-28T01:39:08.857Z,1035.62
2019-03-28T01:40:08.896Z,1035.67
2019-03-28T01:41:08.923Z,1035.64
2019-03-28T01:42:08.876Z,1035.65
2019-03-28T01:43:08.852Z,1035.65
2019-03-28T01:44:08.940Z,1035.66
2019-03-28T01:45:08.909Z,1035.65
2019-03-28T01:46:08.880Z,1035.67
2019-03-28T01:47:08.639Z,1035.68
2019-03-28T01:48:08.728Z,1035.65
2019-03-28T01:49:08.688Z,1035.64
2019-03-28T01:50:08.714Z,1035.63
2019-03-28T01:51:08.732Z,1035.63
2019-03-28T01:52:08.690Z,1035.6
2019-03-28T01:53:08.448Z,1035.58
2019-03-28T01:54:08.763Z,1035.53
2019-03-28T01:55:08.806Z,1035.51
2019-03-28T01:56:08.935Z,1035.51
2019-03-28T01:57:12.877Z,1035.51
2019-03-28T01:58:08.831Z,1035.47
2019-03-28T01:59:08.517Z,1035.48
2019-03-28T02:00:08.801Z,1035.46
2019-03-28T02:01:09.169Z,1035.45
2019-03-28T02:02:09.075Z,1035.44
2019-03-28T02:03:08.825Z,1035.45
2019-03-28T02:04:08.874Z,1035.44
2019-03-28T02:05:08.632Z,1035.42
2019-03-28T02:06:09.439Z,1035.47
2019-03-28T02:07:08.691Z,1035.45
2019-03-28T02:08:08.755Z,1035.48
2019-03-28T02:09:08.747Z,1035.46
2019-03-28T02:10:08.965Z,1035.5
2019-03-28T02:11:08.728Z,1035.49
2019-03-28T02:12:08.855Z,1035.49
2019-03-28T02:13:08.775Z,1035.51
2019-03-28T02:14:08.814Z,1035.52
2019-03-28T02:15:08.780Z,1035.51
2019-03-28T02:16:08.875Z,1035.52
2019-03-28T02:17:08.870Z,1035.54
2019-03-28T02:18:08.828Z,1035.54
2019-03-28T02:19:08.865Z,1035.53
2019-03-28T02:20:08.854Z,1035.48
2019-03-28T02:21:09.788Z,1035.46
2019-03-28T02:22:08.958Z,1035.46
2019-03-28T02:23:08.349Z,1035.44
2019-03-28T02:24:08.337Z,1035.46
2019-03-28T02:25:08.763Z,1035.47
2019-03-28T02:26:09.383Z,1035.49
2019-03-28T02:27:08.700Z,1035.51
2019-03-28T02:28:08.653Z,1035.56
2019-03-28T02:29:08.683Z,1035.55
2019-03-28T02:30:08.720Z,1035.58
2019-03-28T02:31:08.734Z,1035.57
2019-03-28T02:32:08.756Z,1035.58
2019-03-28T02:33:08.737Z,1035.56
2019-03-28T02:34:08.810Z,1035.53
2019-03-28T02:35:08.764Z,1035.57
2019-03-28T02:36:08.801Z,1035.56
2019-03-28T02:37:08.580Z,1035.57
2019-03-28T02:38:08.838Z,1035.55
2019-03-28T02:39:09.025Z,1035.53
2019-03-28T02:40:08.743Z,1035.54
2019-03-28T02:41:09.094Z,1035.53
2019-03-28T02:42:08.716Z,1035.53
2019-03-28T02:43:08.594Z,1035.53
2019-03-28T02:44:08.950Z,1035.52
2019-03-28T02:45:09.107Z,1035.55
2019-03-28T02:46:08.688Z,1035.54
2019-03-28T02:47:08.824Z,1035.52
2019-03-28T02:48:08.748Z,1035.48
2019-03-28T02:49:08.791Z,1035.51
2019-03-28T02:50:08.903Z,1035.49
2019-03-28T02:51:08.858Z,1035.46
2019-03-28T02:52:08.876Z,1035.47
2019-03-28T02:53:08.905Z,1035.47
2019-03-28T02:54:08.860Z,1035.45
2019-03-28T02:55:08.861Z,1035.47
2019-03-28T02:56:08.895Z,1035.46
2019-03-28T02:57:08.945Z,1035.42
2019-03-28T02:58:08.960Z,1035.44
2019-03-28T02:59:08.572Z,1035.41
2019-03-28T03:00:08.699Z,1035.46
2019-03-28T03:01:08.644Z,1035.45
2019-03-28T03:02:08.789Z,1035.46
2019-03-28T03:03:08.627Z,1035.47
2019-03-28T03:04:08.832Z,1035.5
2019-03-28T03:05:09.068Z,1035.55
2019-03-28T03:06:08.721Z,1035.59
2019-03-28T03:07:08.691Z,1035.58
2019-03-28T03:08:08.740Z,1035.56
2019-03-28T03:09:08.741Z,1035.58
2019-03-28T03:10:08.840Z,1035.58
2019-03-28T03:11:09.907Z,1035.57
2019-03-28T03:12:08.831Z,1035.56
2019-03-28T03:13:08.959Z,1035.58
2019-03-28T03:14:08.832Z,1035.56
2019-03-28T03:15:08.795Z,1035.54
2019-03-28T03:16:08.665Z,1035.52
2019-03-28T03:17:08.619Z,1035.57
2019-03-28T03:18:08.681Z,1035.49
2019-03-28T03:19:08.701Z,1035.48
2019-03-28T03:20:08.663Z,1035.51
2019-03-28T03:21:10.385Z,1035.51
2019-03-28T03:22:08.835Z,1035.53
2019-03-28T03:23:08.725Z,1035.54
2019-03-28T03:24:08.791Z,1035.55
2019-03-28T03:25:08.784Z,1035.56
2019-03-28T03:26:08.786Z,1035.58
2019-03-28T03:27:09.505Z,1035.59
2019-03-28T03:28:08.809Z,1035.56
2019-03-28T03:29:08.803Z,1035.56
2019-03-28T03:30:09.023Z,1035.55
2019-03-28T03:31:08.954Z,1035.58
2019-03-28T03:32:08.879Z,1035.6
2019-03-28T03:33:09.697Z,1035.57
2019-03-28T03:34:08.643Z,1035.58
2019-03-28T03:35:08.755Z,1035.57
2019-03-28T03:36:08.608Z,1035.63
2019-03-28T03:37:08.663Z,1035.6
2019-03-28T03:38:08.685Z,1035.63
2019-03-28T03:39:08.895Z,1035.63
2019-03-28T03:40:08.649Z,1035.61
2019-03-28T03:41:08.690Z,1035.6
2019-03-28T03:42:08.892Z,1035.62
2019-03-28T03:43:08.695Z,1035.63
2019-03-28T03:44:08.733Z,1035.64
2019-03-28T03:45:09.943Z,1035.62
2019-03-28T03:46:08.742Z,1035.64
2019-03-28T03:47:08.774Z,1035.61
2019-03-28T03:48:08.990Z,1035.61
2019-03-28T03:49:09.027Z,1035.65
2019-03-28T03:50:09.922Z,1035.69
2019-03-28T03:51:08.604Z,1035.68
2019-03-28T03:52:08.572Z,1035.68
2019-03-28T03:53:08.657Z,1035.69
2019-03-28T03:54:08.684Z,1035.72
2019-03-28T03:55:08.669Z,1035.73
2019-03-28T03:56:08.818Z,1035.71
2019-03-28T03:57:08.775Z,1035.71
2019-03-28T03:58:18.591Z,1035.74
2019-03-28T03:59:08.710Z,1035.74
2019-03-28T04:00:08.729Z,1035.73
2019-03-28T04:01:08.790Z,1035.78
2019-03-28T04:02:08.903Z,1035.79
2019-03-28T04:03:08.866Z,1035.8
2019-03-28T04:04:08.791Z,1035.81
2019-03-28T04:05:08.994Z,1035.79
2019-03-28T04:06:08.885Z,1035.82
2019-03-28T04:07:08.558Z,1035.8
2019-03-28T04:08:08.550Z,1035.79
2019-03-28T04:09:08.600Z,1035.81
2019-03-28T04:10:09.641Z,1035.83
2019-03-28T04:11:08.703Z,1035.81
2019-03-28T04:12:08.371Z,1035.86
2019-03-28T04:13:08.645Z,1035.84
2019-03-28T04:14:08.716Z,1035.84
2019-03-28T04:15:08.655Z,1035.82
2019-03-28T04:16:08.747Z,1035.8
2019-03-28T04:17:08.790Z,1035.82
2019-03-28T04:18:08.766Z,1035.82
2019-03-28T04:19:08.752Z,1035.81
2019-03-28T04:20:08.806Z,1035.78
2019-03-28T04:21:08.767Z,1035.82
2019-03-28T04:22:10.312Z,1035.82
2019-03-28T04:23:08.599Z,1035.83
2019-03-28T04:24:08.704Z,1035.85
2019-03-28T04:25:08.747Z,1035.82
2019-03-28T04:26:08.630Z,1035.88
2019-03-28T04:27:08.682Z,1035.87
2019-03-28T04:28:08.742Z,1035.9
2019-03-28T04:29:08.755Z,1035.92
2019-03-28T04:30:08.728Z,1035.94
2019-03-28T04:31:08.944Z,1035.92
2019-03-28T04:32:08.719Z,1035.98
2019-03-28T04:33:08.729Z,1036
2019-03-28T04:34:10.094Z,1036
2019-03-28T04:35:08.911Z,1036.01
2019-03-28T04:36:08.826Z,1036.06
2019-03-28T04:37:08.797Z,1036.1
2019-03-28T04:38:08.833Z,1036.14
2019-03-28T04:39:08.870Z,1036.12
2019-03-28T04:40:09.134Z,1036.15
2019-03-28T04:41:08.629Z,1036.13
2019-03-28T04:42:08.575Z,1036.13
2019-03-28T04:43:08.619Z,1036.14
2019-03-28T04:44:08.649Z,1036.11
2019-03-28T04:45:08.802Z,1036.12
2019-03-28T04:46:08.692Z,1036.17
2019-03-28T04:47:08.672Z,1036.18
2019-03-28T04:48:08.622Z,1036.21
2019-03-28T04:49:08.794Z,1036.2
2019-03-28T04:50:08.718Z,1036.2
2019-03-28T04:51:12.162Z,1036.16
2019-03-28T04:52:08.733Z,1036.18
2019-03-28T04:53:08.760Z,1036.15
2019-03-28T04:54:10.154Z,1036.14
2019-03-28T04:55:08.824Z,1036.14
2019-03-28T04:56:08.894Z,1036.14
2019-03-28T04:57:08.633Z,1036.12
2019-03-28T04:58:08.604Z,1036.11
2019-03-28T04:59:08.607Z,1036.12
2019-03-28T05:00:08.671Z,1036.09
2019-03-28T05:01:08.677Z,1036.12
2019-03-28T05:02:08.683Z,1036.11
2019-03-28T05:03:08.708Z,1036.12
2019-03-28T05:04:08.705Z,1036.11
2019-03-28T05:05:08.718Z,1036.14
2019-03-28T05:06:08.755Z,1036.17
2019-03-28T05:07:08.796Z,1036.18
2019-03-28T05:08:08.744Z,1036.18
2019-03-28T05:09:08.802Z,1036.16
2019-03-28T05:10:08.837Z,1036.13
2019-03-28T05:11:08.816Z,1036.14
2019-03-28T05:12:08.810Z,1036.13
2019-03-28T05:13:08.549Z,1036.14
2019-03-28T05:14:08.606Z,1036.1
2019-03-28T05:15:08.730Z,1036.11
2019-03-28T05:16:08.647Z,1036.09
2019-03-28T05:17:08.646Z,1036.06
2019-03-28T05:18:08.615Z,1036.07
2019-03-28T05:19:08.653Z,1036.09
2019-03-28T05:20:08.415Z,1036.1
2019-03-28T05:21:08.829Z,1036.1
2019-03-28T05:22:08.782Z,1036.07
2019-03-28T05:23:08.729Z,1036.09
2019-03-28T05:24:08.476Z,1036.07
2019-03-28T05:25:08.772Z,1036.11
2019-03-28T05:26:08.893Z,1036.12
2019-03-28T05:27:08.753Z,1036.1
2019-03-28T05:28:08.785Z,1036.13
2019-03-28T05:29:08.596Z,1036.14
2019-03-28T05:30:08.596Z,1036.13
2019-03-28T05:31:08.612Z,1036.15
2019-03-28T05:32:08.618Z,1036.15
2019-03-28T05:33:08.660Z,1036.12
2019-03-28T05:34:08.750Z,1036.1
2019-03-28T05:35:08.790Z,1036.11
2019-03-28T05:36:08.726Z,1036.11
2019-03-28T05:37:08.850Z,1036.13
2019-03-28T05:38:08.727Z,1036.11
2019-03-28T05:39:08.871Z,1036.14
2019-03-28T05:40:08.758Z,1036.13
2019-03-28T05:41:08.844Z,1036.1
2019-03-28T05:42:08.815Z,1036.1
2019-03-28T05:43:08.908Z,1036.13
2019-03-28T05:44:08.755Z,1036.15
2019-03-28T05:45:08.538Z,1036.14
2019-03-28T05:46:08.549Z,1036.2
2019-03-28T05:47:08.596Z,1036.17
2019-03-28T05:48:08.542Z,1036.17
2019-03-28T05:49:08.310Z,1036.18
2019-03-28T05:50:08.620Z,1036.22
2019-03-28T05:51:08.545Z,1036.19
2019-03-28T05:52:11.980Z,1036.2
2019-03-28T05:53:08.668Z,1036.23
2019-03-28T05:54:08.660Z,1036.24
2019-03-28T05:55:08.713Z,1036.25
2019-03-28T05:56:08.688Z,1036.3
2019-03-28T05:57:08.874Z,1036.33
2019-03-28T05:58:09.898Z,1036.35
2019-03-28T05:59:11.725Z,1036.38
2019-03-28T06:00:08.778Z,1036.39
2019-03-28T06:01:08.562Z,1036.37
2019-03-28T06:02:08.624Z,1036.41
2019-03-28T06:03:08.614Z,1036.43
2019-03-28T06:04:08.619Z,1036.45
2019-03-28T06:05:08.650Z,1036.38
2019-03-28T06:06:08.654Z,1036.41
2019-03-28T06:07:10.570Z,1036.41
2019-03-28T06:08:08.651Z,1036.43
2019-03-28T06:09:08.733Z,1036.42
2019-03-28T06:10:08.754Z,1036.42
2019-03-28T06:11:08.727Z,1036.42
2019-03-28T06:12:08.755Z,1036.42
2019-03-28T06:13:08.785Z,1036.44
2019-03-28T06:14:08.790Z,1036.42
2019-03-28T06:15:08.802Z,1036.45
2019-03-28T06:16:08.781Z,1036.45
2019-03-28T06:17:08.805Z,1036.45
2019-03-28T06:18:08.494Z,1036.46
2019-03-28T06:19:08.782Z,1036.44
2019-03-28T06:20:08.728Z,1036.46
2019-03-28T06:21:08.603Z,1036.47
2019-03-28T06:22:08.621Z,1036.45
2019-03-28T06:23:08.603Z,1036.5
2019-03-28T06:24:08.645Z,1036.47
2019-03-28T06:25:08.683Z,1036.47
2019-03-28T06:26:08.771Z,1036.46
2019-03-28T06:27:08.635Z,1036.51
2019-03-28T06:28:08.690Z,1036.46
2019-03-28T06:29:08.991Z,1036.45
2019-03-28T06:30:08.760Z,1036.48
2019-03-28T06:31:08.728Z,1036.49
2019-03-28T06:32:08.921Z,1036.52
2019-03-28T06:33:08.803Z,1036.54
2019-03-28T06:34:08.674Z,1036.55
2019-03-28T06:35:08.589Z,1036.56
2019-03-28T06:36:08.744Z,1036.58
2019-03-28T06:37:08.607Z,1036.61
2019-03-28T06:38:08.615Z,1036.63
2019-03-28T06:39:08.735Z,1036.68
2019-03-28T06:40:08.754Z,1036.68
2019-03-28T06:41:08.682Z,1036.66
2019-03-28T06:42:08.690Z,1036.7
2019-03-28T06:43:08.659Z,1036.65
2019-03-28T06:44:08.704Z,1036.67
2019-03-28T06:45:08.728Z,1036.64
2019-03-28T06:46:08.866Z,1036.63
2019-03-28T06:47:08.837Z,1036.64
2019-03-28T06:48:08.775Z,1036.59
2019-03-28T06:49:08.791Z,1036.59
2019-03-28T06:50:09.605Z,1036.56
2019-03-28T06:51:08.543Z,1036.53
2019-03-28T06:52:08.539Z,1036.53
2019-03-28T06:53:08.653Z,1036.58
2019-03-28T06:54:08.585Z,1036.55
2019-03-28T06:55:08.663Z,1036.55
2019-03-28T06:56:08.584Z,1036.55
2019-03-28T06:57:08.671Z,1036.56
2019-03-28T06:58:08.770Z,1036.51
2019-03-28T06:59:08.695Z,1036.49
2019-03-28T07:00:08.626Z,1036.47
2019-03-28T07:01:08.370Z,1036.51
2019-03-28T07:02:08.767Z,1036.48
2019-03-28T07:03:08.650Z,1036.5
2019-03-28T07:04:08.730Z,1036.46
2019-03-28T07:05:08.715Z,1036.5
2019-03-28T07:06:08.715Z,1036.49
2019-03-28T07:07:08.529Z,1036.51
2019-03-28T07:08:08.537Z,1036.47
2019-03-28T07:09:08.596Z,1036.5
2019-03-28T07:10:08.602Z,1036.46
2019-03-28T07:11:08.572Z,1036.45
2019-03-28T07:12:08.617Z,1036.41
2019-03-28T07:13:08.624Z,1036.44
2019-03-28T07:14:08.614Z,1036.42
2019-03-28T07:15:08.742Z,1036.46
2019-03-28T07:16:08.640Z,1036.44
2019-03-28T07:17:08.749Z,1036.44
2019-03-28T07:18:08.679Z,1036.44
2019-03-28T07:19:08.721Z,1036.44
2019-03-28T07:20:09.645Z,1036.46
2019-03-28T07:21:08.729Z,1036.42
2019-03-28T07:22:08.744Z,1036.44
2019-03-28T07:23:09.564Z,1036.39
2019-03-28T07:24:08.883Z,1036.44
2019-03-28T07:25:08.504Z,1036.46
2019-03-28T07:26:08.540Z,1036.43
2019-03-28T07:27:08.689Z,1036.44
2019-03-28T07:28:09.666Z,1036.44
2019-03-28T07:29:08.561Z,1036.44
2019-03-28T07:30:08.563Z,1036.42
2019-03-28T07:31:08.562Z,1036.4
2019-03-28T07:32:08.620Z,1036.42
2019-03-28T07:33:08.717Z,1036.44
2019-03-28T07:34:08.693Z,1036.45
2019-03-28T07:35:08.366Z,1036.43
2019-03-28T07:36:09.023Z,1036.42
2019-03-28T07:37:08.660Z,1036.44
2019-03-28T07:38:08.700Z,1036.46
2019-03-28T07:39:08.703Z,1036.44
2019-03-28T07:40:08.850Z,1036.47
2019-03-28T07:41:08.743Z,1036.47
2019-03-28T07:42:08.735Z,1036.46
2019-03-28T07:43:08.617Z,1036.47
2019-03-28T07:44:08.538Z,1036.51
2019-03-28T07:45:08.560Z,1036.48
2019-03-28T07:46:08.687Z,1036.47
2019-03-28T07:47:08.619Z,1036.52
2019-03-28T07:48:08.617Z,1036.5
2019-03-28T07:49:08.623Z,1036.49
2019-03-28T07:50:08.636Z,1036.47
2019-03-28T07:51:08.662Z,1036.5
2019-03-28T07:52:08.642Z,1036.45
2019-03-28T07:53:08.659Z,1036.43
2019-03-28T07:54:08.697Z,1036.44
2019-03-28T07:55:08.654Z,1036.39
2019-03-28T07:56:08.721Z,1036.39
2019-03-28T07:57:08.698Z,1036.39
2019-03-28T07:58:09.526Z,1036.36
2019-03-28T07:59:08.767Z,1036.38
2019-03-28T08:00:08.772Z,1036.38
2019-03-28T08:01:08.510Z,1036.39
2019-03-28T08:02:08.510Z,1036.35
2019-03-28T08:03:08.271Z,1036.34
2019-03-28T08:04:08.538Z,1036.35
2019-03-28T08:05:08.649Z,1036.37
2019-03-28T08:06:08.626Z,1036.37
2019-03-28T08:07:08.188Z,1036.33
2019-03-28T08:08:08.270Z,1036.37
2019-03-28T08:09:08.224Z,1036.37
2019-03-28T08:10:08.291Z,1036.35
2019-03-28T08:11:08.912Z,1036.36
2019-03-28T08:12:23.707Z,1036.37
2019-03-28T08:13:08.317Z,1036.37
2019-03-28T08:14:08.327Z,1036.36
2019-03-28T08:15:08.370Z,1036.4
2019-03-28T08:16:08.331Z,1036.4
2019-03-28T08:17:08.413Z,1036.41
2019-03-28T08:18:08.272Z,1036.44
2019-03-28T08:19:08.347Z,1036.41
2019-03-28T08:20:08.252Z,1036.41
2019-03-28T08:21:08.172Z,1036.42
2019-03-28T08:22:08.217Z,1036.4
2019-03-28T08:23:08.205Z,1036.43
2019-03-28T08:24:08.225Z,1036.4
2019-03-28T08:25:13.606Z,1036.4
2019-03-28T08:26:08.242Z,1036.4
2019-03-28T08:27:08.236Z,1036.38
2019-03-28T08:28:08.494Z,1036.42
2019-03-28T08:29:08.401Z,1036.43
2019-03-28T08:30:19.734Z,1036.41
2019-03-28T08:31:08.317Z,1036.42
2019-03-28T08:32:09.342Z,1036.43
2019-03-28T08:33:08.427Z,1036.44
2019-03-28T08:34:08.359Z,1036.47
2019-03-28T08:35:08.416Z,1036.48
2019-03-28T08:36:08.202Z,1036.46
2019-03-28T08:37:08.156Z,1036.45
2019-03-28T08:38:10.717Z,1036.44
2019-03-28T08:39:08.193Z,1036.42
2019-03-28T08:40:08.174Z,1036.38
2019-03-28T08:41:08.337Z,1036.38
2019-03-28T08:42:08.503Z,1036.42
2019-03-28T08:43:08.313Z,1036.4
2019-03-28T08:44:08.279Z,1036.39
2019-03-28T08:45:08.282Z,1036.4
2019-03-28T08:46:09.063Z,1036.42
2019-03-28T08:47:08.272Z,1036.38
2019-03-28T08:48:08.278Z,1036.36
2019-03-28T08:49:08.271Z,1036.35
2019-03-28T08:50:08.299Z,1036.38
2019-03-28T08:51:08.301Z,1036.33
2019-03-28T08:52:12.147Z,1036.34
2019-03-28T08:53:08.387Z,1036.25
2019-03-28T08:54:08.257Z,1036.34
2019-03-28T08:55:10.532Z,1036.31
2019-03-28T08:56:08.171Z,1036.32
2019-03-28T08:57:08.310Z,1036.31
2019-03-28T08:58:08.203Z,1036.31
2019-03-28T08:59:08.289Z,1036.32
2019-03-28T09:00:08.292Z,1036.29
2019-03-28T09:01:08.227Z,1036.33
2019-03-28T09:02:08.235Z,1036.32
2019-03-28T09:03:08.343Z,1036.31
2019-03-28T09:04:08.270Z,1036.32
2019-03-28T09:05:08.293Z,1036.32
2019-03-28T09:06:08.305Z,1036.32
2019-03-28T09:07:08.376Z,1036.32
2019-03-28T09:08:08.407Z,1036.3
2019-03-28T09:09:08.300Z,1036.3
2019-03-28T09:10:08.411Z,1036.3
2019-03-28T09:11:08.354Z,1036.31
2019-03-28T09:12:08.517Z,1036.32
2019-03-28T09:13:08.081Z,1036.31
2019-03-28T09:14:08.094Z,1036.33
2019-03-28T09:15:08.303Z,1036.28
2019-03-28T09:16:08.126Z,1036.28
2019-03-28T09:17:08.338Z,1036.28
2019-03-28T09:18:08.159Z,1036.27
2019-03-28T09:19:08.173Z,1036.28
2019-03-28T09:20:08.221Z,1036.22
2019-03-28T09:21:08.209Z,1036.23
2019-03-28T09:22:08.192Z,1036.22
2019-03-28T09:23:08.249Z,1036.21
2019-03-28T09:24:08.427Z,1036.22
2019-03-28T09:25:08.384Z,1036.2
2019-03-28T09:26:08.284Z,1036.2
2019-03-28T09:27:08.359Z,1036.21
2019-03-28T09:28:08.347Z,1036.19
2019-03-28T09:29:08.470Z,1036.18
2019-03-28T09:30:08.494Z,1036.18
2019-03-28T09:31:20.630Z,1036.2
2019-03-28T09:32:08.132Z,1036.18
2019-03-28T09:33:08.992Z,1036.19
2019-03-28T09:34:08.150Z,1036.21
2019-03-28T09:35:08.255Z,1036.16
2019-03-28T09:36:08.226Z,1036.17
2019-03-28T09:37:08.214Z,1036.18
2019-03-28T09:38:08.304Z,1036.16
2019-03-28T09:39:08.212Z,1036.16
2019-03-28T09:40:08.242Z,1036.18
2019-03-28T09:41:08.295Z,1036.15
2019-03-28T09:42:08.334Z,1036.17
2019-03-28T09:43:08.284Z,1036.17
2019-03-28T09:44:08.291Z,1036.18
2019-03-28T09:45:08.302Z,1036.19
2019-03-28T09:46:08.415Z,1036.21
2019-03-28T09:47:08.460Z,1036.2
2019-03-28T09:48:12.273Z,1036.19
2019-03-28T09:49:08.100Z,1036.18
2019-03-28T09:50:08.178Z,1036.14
2019-03-28T09:51:08.081Z,1036.18
2019-03-28T09:52:08.108Z,1036.15
2019-03-28T09:53:08.128Z,1036.16
2019-03-28T09:54:08.211Z,1036.2
2019-03-28T09:55:08.152Z,1036.17
2019-03-28T09:56:08.170Z,1036.16
2019-03-28T09:57:08.179Z,1036.14
2019-03-28T09:58:08.188Z,1036.09
2019-03-28T09:59:08.193Z,1036.11
2019-03-28T10:00:08.208Z,1036.07
2019-03-28T10:01:08.280Z,1036.08
2019-03-28T10:02:08.269Z,1036.05
2019-03-28T10:03:08.322Z,1036.03
2019-03-28T10:04:08.277Z,1036.04
2019-03-28T10:05:08.282Z,1036.01
2019-03-28T10:06:08.298Z,1035.98
2019-03-28T10:07:08.388Z,1036
2019-03-28T10:08:08.091Z,1035.99
2019-03-28T10:09:08.423Z,1036
2019-03-28T10:10:09.595Z,1036.01
2019-03-28T10:11:08.140Z,1036.02
2019-03-28T10:12:08.143Z,1035.99
2019-03-28T10:13:08.244Z,1036.01
2019-03-28T10:14:08.516Z,1036
2019-03-28T10:15:08.194Z,1036.01
2019-03-28T10:16:09.882Z,1035.97
2019-03-28T10:17:08.215Z,1035.93
2019-03-28T10:18:08.236Z,1035.98
2019-03-28T10:19:08.299Z,1035.96
2019-03-28T10:20:09.215Z,1035.93
2019-03-28T10:21:08.282Z,1035.89
2019-03-28T10:22:08.337Z,1035.88
2019-03-28T10:23:08.303Z,1035.85
2019-03-28T10:24:08.370Z,1035.88
2019-03-28T10:25:08.334Z,1035.9
2019-03-28T10:26:08.398Z,1035.88
2019-03-28T10:27:08.079Z,1035.89
2019-03-28T10:28:08.087Z,1035.87
2019-03-28T10:29:08.153Z,1035.86
2019-03-28T10:30:08.168Z,1035.88
2019-03-28T10:31:17.171Z,1035.86
2019-03-28T10:32:08.135Z,1035.84
2019-03-28T10:33:08.162Z,1035.79
2019-03-28T10:34:08.145Z,1035.82
2019-03-28T10:35:08.166Z,1035.78
2019-03-28T10:36:08.178Z,1035.76
2019-03-28T10:37:08.447Z,1035.77
2019-03-28T10:38:08.230Z,1035.75
2019-03-28T10:39:08.336Z,1035.77
2019-03-28T10:40:08.239Z,1035.73
2019-03-28T10:41:08.240Z,1035.74
2019-03-28T10:42:08.271Z,1035.71
2019-03-28T10:43:08.279Z,1035.69
2019-03-28T10:44:08.427Z,1035.7
2019-03-28T10:45:08.381Z,1035.68
2019-03-28T10:46:08.069Z,1035.71
2019-03-28T10:47:08.188Z,1035.68
2019-03-28T10:48:08.155Z,1035.68
2019-03-28T10:49:08.190Z,1035.7
2019-03-28T10:50:08.239Z,1035.74
2019-03-28T10:51:08.192Z,1035.76
2019-03-28T10:52:10.349Z,1035.77
2019-03-28T10:53:08.300Z,1035.81
2019-03-28T10:54:21.085Z,1035.8
2019-03-28T10:55:08.225Z,1035.79
2019-03-28T10:56:24.152Z,1035.77
2019-03-28T10:57:30.258Z,1035.77
2019-03-28T10:58:19.824Z,1035.8
2019-03-28T10:59:08.257Z,1035.77
2019-03-28T11:00:08.359Z,1035.8
2019-03-28T11:01:08.410Z,1035.78
2019-03-28T11:02:08.314Z,1035.79
2019-03-28T11:03:08.340Z,1035.76
2019-03-28T11:04:08.051Z,1035.71
2019-03-28T11:05:08.081Z,1035.71
2019-03-28T11:06:08.240Z,1035.72
2019-03-28T11:07:08.089Z,1035.69
2019-03-28T11:08:08.140Z,1035.68
2019-03-28T11:09:08.859Z,1035.66
2019-03-28T11:10:08.115Z,1035.63
2019-03-28T11:11:08.148Z,1035.63
2019-03-28T11:12:08.152Z,1035.64
2019-03-28T11:13:10.198Z,1035.62
2019-03-28T11:14:08.200Z,1035.62
2019-03-28T11:15:08.301Z,1035.58
2019-03-28T11:16:08.342Z,1035.53
2019-03-28T11:17:08.247Z,1035.56
2019-03-28T11:18:08.144Z,1035.53
2019-03-28T11:19:08.310Z,1035.5
2019-03-28T11:20:08.449Z,1035.5
2019-03-28T11:21:08.329Z,1035.49
2019-03-28T11:22:08.284Z,1035.47
2019-03-28T11:23:08.089Z,1035.53
2019-03-28T11:24:08.297Z,1035.49
2019-03-28T11:25:08.294Z,1035.51
2019-03-28T11:26:08.116Z,1035.49
2019-03-28T11:27:08.222Z,1035.47
2019-03-28T11:28:08.385Z,1035.43
2019-03-28T11:29:08.343Z,1035.42
2019-03-28T11:30:08.181Z,1035.43
2019-03-28T11:31:08.193Z,1035.41
2019-03-28T11:32:08.218Z,1035.39
2019-03-28T11:33:08.253Z,1035.4
2019-03-28T11:34:08.352Z,1035.39
2019-03-28T11:35:08.506Z,1035.35
2019-03-28T11:36:08.252Z,1035.35
2019-03-28T11:37:26.685Z,1035.36
2019-03-28T11:38:10.165Z,1035.32
2019-03-28T11:39:08.348Z,1035.28
2019-03-28T11:40:09.775Z,1035.29
2019-03-28T11:41:09.165Z,1035.27
2019-03-28T11:42:08.034Z,1035.29
2019-03-28T11:43:08.122Z,1035.24
2019-03-28T11:44:08.089Z,1035.27
2019-03-28T11:45:10.115Z,1035.25
2019-03-28T11:46:08.111Z,1035.25
2019-03-28T11:47:08.110Z,1035.25
2019-03-28T11:48:08.140Z,1035.25
2019-03-28T11:49:08.212Z,1035.23
2019-03-28T11:50:08.286Z,1035.23
2019-03-28T11:51:08.164Z,1035.23
2019-03-28T11:52:08.217Z,1035.22
2019-03-28T11:53:08.195Z,1035.23
2019-03-28T11:54:08.252Z,1035.16
2019-03-28T11:55:08.242Z,1035.18
2019-03-28T11:56:08.293Z,1035.15
2019-03-28T11:57:08.234Z,1035.12
2019-03-28T11:58:08.290Z,1035.15
2019-03-28T11:59:08.166Z,1035.08
2019-03-28T12:00:08.096Z,1035.08
2019-03-28T12:01:08.099Z,1035.09
2019-03-28T12:02:20.825Z,1035.07
2019-03-28T12:03:08.117Z,1035.06
2019-03-28T12:04:08.573Z,1035.05
2019-03-28T12:05:08.162Z,1035.01
2019-03-28T12:06:08.289Z,1035.03
2019-03-28T12:07:08.210Z,1035.04
2019-03-28T12:08:08.174Z,1035